sensor_id;sensor_type;location;lat;lon;timestamp;pressure;altitude;pressure_sealevel;temperature;humidity
74613;BME280;63119;51.788;8.824;2023-06-22T00:00:41;100335.41;;;20.06;76.57
74613;BME280;63119;51.788;8.824;2023-06-22T00:03:07;100336.59;;;20.11;76.34
74613;BME280;63119;51.788;8.824;2023-06-22T00:05:32;100323.72;;;20.15;76.17
74613;BME280;63119;51.788;8.824;2023-06-22T00:07:58;100323.28;;;20.28;75.57
74613;BME280;63119;51.788;8.824;2023-06-22T00:10:23;100317.56;;;20.48;75.05
74613;BME280;63119;51.788;8.824;2023-06-22T00:12:48;100315.88;;;20.47;75.08
74613;BME280;63119;51.788;8.824;2023-06-22T00:15:13;100322.06;;;20.22;76.15
74613;BME280;63119;51.788;8.824;2023-06-22T00:17:39;100312.56;;;20.10;76.57
74613;BME280;63119;51.788;8.824;2023-06-22T00:20:04;100314.94;;;20.13;76.26
74613;BME280;63119;51.788;8.824;2023-06-22T00:22:31;100315.97;;;20.12;76.48
74613;BME280;63119;51.788;8.824;2023-06-22T00:24:56;100325.16;;;20.27;76.03
74613;BME280;63119;51.788;8.824;2023-06-22T00:27:22;100318.66;;;20.38;75.27
74613;BME280;63119;51.788;8.824;2023-06-22T00:29:47;100319.06;;;20.25;76.24
74613;BME280;63119;51.788;8.824;2023-06-22T00:32:12;100309.41;;;20.32;75.41
74613;BME280;63119;51.788;8.824;2023-06-22T00:34:37;100309.09;;;20.35;75.54
74613;BME280;63119;51.788;8.824;2023-06-22T00:37:03;100296.63;;;20.34;75.72
74613;BME280;63119;51.788;8.824;2023-06-22T00:39:28;100276.06;;;20.25;76.29
74613;BME280;63119;51.788;8.824;2023-06-22T00:41:54;100281.44;;;20.25;nan
74613;BME280;63119;51.788;8.824;2023-06-22T00:44:19;100276.31;;;20.32;76.00
74613;BME280;63119;51.788;8.824;2023-06-22T00:46:45;100280.00;;;20.13;77.09
74613;BME280;63119;51.788;8.824;2023-06-22T00:49:10;100275.31;;;20.33;76.38
74613;BME280;63119;51.788;8.824;2023-06-22T00:51:36;100279.53;;;20.35;76.14
74613;BME280;63119;51.788;8.824;2023-06-22T00:54:03;100283.84;;;20.28;76.85
74613;BME280;63119;51.788;8.824;2023-06-22T00:56:30;100276.94;;;20.26;76.82
74613;BME280;63119;51.788;8.824;2023-06-22T00:58:55;100274.25;;;20.26;76.85
74613;BME280;63119;51.788;8.824;2023-06-22T01:01:22;100265.81;;;20.21;77.33
74613;BME280;63119;51.788;8.824;2023-06-22T01:03:47;100260.81;;;20.26;76.97
74613;BME280;63119;51.788;8.824;2023-06-22T01:06:19;100266.44;;;20.40;76.52
74613;BME280;63119;51.788;8.824;2023-06-22T01:09:19;100267.47;;;20.39;76.90
74613;BME280;63119;51.788;8.824;2023-06-22T01:11:52;100265.78;;;20.46;76.54
74613;BME280;63119;51.788;8.824;2023-06-22T01:14:35;100257.94;;;20.53;76.51
74613;BME280;63119;51.788;8.824;2023-06-22T01:17:03;100259.31;;;20.57;76.38
74613;BME280;63119;51.788;8.824;2023-06-22T01:19:45;100263.84;;;20.56;76.22
74613;BME280;63119;51.788;8.824;2023-06-22T01:22:15;100263.47;;;20.51;76.47
74613;BME280;63119;51.788;8.824;2023-06-22T01:24:55;100258.81;;;20.61;76.43
74613;BME280;63119;51.788;8.824;2023-06-22T01:27:35;100263.91;;;20.73;75.98
74613;BME280;63119;51.788;8.824;2023-06-22T01:30:07;100260.47;;;20.54;76.76
74613;BME280;63119;51.788;8.824;2023-06-22T01:32:37;100266.50;;;20.48;76.97
74613;BME280;63119;51.788;8.824;2023-06-22T01:35:05;100270.06;;;20.57;76.39
74613;BME280;63119;51.788;8.824;2023-06-22T01:37:32;100267.84;;;20.52;76.77
74613;BME280;63119;51.788;8.824;2023-06-22T01:39:59;100270.53;;;20.52;77.03
74613;BME280;63119;51.788;8.824;2023-06-22T01:42:26;100270.69;;;20.51;77.18
74613;BME280;63119;51.788;8.824;2023-06-22T01:44:55;100264.16;;;20.53;77.15
74613;BME280;63119;51.788;8.824;2023-06-22T01:47:22;100259.53;;;20.71;76.37
74613;BME280;63119;51.788;8.824;2023-06-22T01:49:47;100265.69;;;20.64;76.59
74613;BME280;63119;51.788;8.824;2023-06-22T01:52:13;100259.09;;;20.50;77.52
74613;BME280;63119;51.788;8.824;2023-06-22T01:54:39;100257.72;;;20.46;77.98
74613;BME280;63119;51.788;8.824;2023-06-22T01:57:05;100267.13;;;20.42;78.45
74613;BME280;63119;51.788;8.824;2023-06-22T02:02:21;100276.38;;;20.22;79.94
74613;BME280;63119;51.788;8.824;2023-06-22T02:04:56;100278.03;;;20.15;80.45
74613;BME280;63119;51.788;8.824;2023-06-22T02:07:23;100272.41;;;20.26;80.05
74613;BME280;63119;51.788;8.824;2023-06-22T02:09:50;100266.72;;;20.29;80.05
74613;BME280;63119;51.788;8.824;2023-06-22T02:12:18;100266.50;;;20.48;79.24
74613;BME280;63119;51.788;8.824;2023-06-22T02:14:46;100274.19;;;20.43;79.63
74613;BME280;63119;51.788;8.824;2023-06-22T02:17:12;100280.81;;;20.31;79.90
74613;BME280;63119;51.788;8.824;2023-06-22T02:19:38;100276.31;;;20.32;80.20
74613;BME280;63119;51.788;8.824;2023-06-22T02:22:05;100281.78;;;20.48;79.17
74613;BME280;63119;51.788;8.824;2023-06-22T02:24:31;100287.25;;;20.38;79.70
74613;BME280;63119;51.788;8.824;2023-06-22T02:27:01;100293.69;;;20.45;79.38
74613;BME280;63119;51.788;8.824;2023-06-22T02:29:26;100286.13;;;20.49;79.58
74613;BME280;63119;51.788;8.824;2023-06-22T02:31:52;100290.63;;;20.40;79.95
74613;BME280;63119;51.788;8.824;2023-06-22T02:34:18;100294.00;;;20.42;79.98
74613;BME280;63119;51.788;8.824;2023-06-22T02:36:47;100291.69;;;20.47;79.74
74613;BME280;63119;51.788;8.824;2023-06-22T02:39:19;100293.16;;;20.42;80.34
74613;BME280;63119;51.788;8.824;2023-06-22T02:41:44;100289.94;;;20.38;80.50
74613;BME280;63119;51.788;8.824;2023-06-22T02:44:10;100294.38;;;20.47;79.97
74613;BME280;63119;51.788;8.824;2023-06-22T02:46:35;100286.31;;;20.47;80.10
74613;BME280;63119;51.788;8.824;2023-06-22T02:49:01;100289.13;;;20.46;80.00
74613;BME280;63119;51.788;8.824;2023-06-22T02:51:26;100280.59;;;20.50;79.98
74613;BME280;63119;51.788;8.824;2023-06-22T02:53:51;100287.34;;;20.54;79.53
74613;BME280;63119;51.788;8.824;2023-06-22T02:56:21;100288.38;;;20.61;79.45
74613;BME280;63119;51.788;8.824;2023-06-22T02:58:50;100289.03;;;20.55;79.45
74613;BME280;63119;51.788;8.824;2023-06-22T03:01:15;100285.34;;;20.56;79.64
74613;BME280;63119;51.788;8.824;2023-06-22T03:03:40;100283.00;;;20.61;79.55
74613;BME280;63119;51.788;8.824;2023-06-22T03:06:06;100286.75;;;20.68;79.50
74613;BME280;63119;51.788;8.824;2023-06-22T03:08:31;100283.72;;;20.71;79.30
74613;BME280;63119;51.788;8.824;2023-06-22T03:10:56;100283.41;;;20.75;78.89
74613;BME280;63119;51.788;8.824;2023-06-22T03:13:21;100273.50;;;20.75;79.17
74613;BME280;63119;51.788;8.824;2023-06-22T03:15:47;100275.00;;;20.78;79.31
74613;BME280;63119;51.788;8.824;2023-06-22T03:18:12;100273.28;;;20.68;79.74
74613;BME280;63119;51.788;8.824;2023-06-22T03:20:37;100265.53;;;20.57;80.30
74613;BME280;63119;51.788;8.824;2023-06-22T03:23:03;100267.19;;;20.58;80.07
74613;BME280;63119;51.788;8.824;2023-06-22T03:25:28;100260.19;;;20.65;79.84
74613;BME280;63119;51.788;8.824;2023-06-22T03:27:53;100264.06;;;20.71;79.55
74613;BME280;63119;51.788;8.824;2023-06-22T03:30:18;100258.84;;;20.69;79.70
74613;BME280;63119;51.788;8.824;2023-06-22T03:32:44;100260.06;;;20.75;79.83
74613;BME280;63119;51.788;8.824;2023-06-22T03:35:09;100257.50;;;20.73;79.18
74613;BME280;63119;51.788;8.824;2023-06-22T03:37:35;100251.66;;;20.86;78.58
74613;BME280;63119;51.788;8.824;2023-06-22T03:40:00;100247.31;;;20.85;78.33
74613;BME280;63119;51.788;8.824;2023-06-22T03:42:26;100249.84;;;20.87;78.03
74613;BME280;63119;51.788;8.824;2023-06-22T03:44:51;100247.47;;;20.84;78.50
74613;BME280;63119;51.788;8.824;2023-06-22T03:47:17;100243.13;;;20.91;78.15
74613;BME280;63119;51.788;8.824;2023-06-22T03:49:42;100244.66;;;20.93;78.46
74613;BME280;63119;51.788;8.824;2023-06-22T03:52:08;100236.56;;;20.93;78.43
74613;BME280;63119;51.788;8.824;2023-06-22T03:54:33;100242.81;;;21.02;78.13
74613;BME280;63119;51.788;8.824;2023-06-22T03:56:58;100239.78;;;20.97;78.64
74613;BME280;63119;51.788;8.824;2023-06-22T03:59:24;100243.47;;;20.96;78.86
74613;BME280;63119;51.788;8.824;2023-06-22T04:01:49;100244.84;;;21.00;78.17
74613;BME280;63119;51.788;8.824;2023-06-22T04:04:16;100248.09;;;21.11;77.62
74613;BME280;63119;51.788;8.824;2023-06-22T04:06:41;100246.91;;;21.22;77.33
74613;BME280;63119;51.788;8.824;2023-06-22T04:09:06;100257.00;;;21.20;77.25
74613;BME280;63119;51.788;8.824;2023-06-22T04:11:31;100248.59;;;21.15;77.39
74613;BME280;63119;51.788;8.824;2023-06-22T04:13:57;100259.22;;;21.24;77.36
74613;BME280;63119;51.788;8.824;2023-06-22T04:16:22;100262.56;;;21.27;77.12
74613;BME280;63119;51.788;8.824;2023-06-22T04:18:47;100263.28;;;21.37;76.59
74613;BME280;63119;51.788;8.824;2023-06-22T04:21:13;100271.69;;;21.42;77.21
74613;BME280;63119;51.788;8.824;2023-06-22T04:23:38;100266.47;;;21.48;76.12
74613;BME280;63119;51.788;8.824;2023-06-22T04:26:03;100267.81;;;21.52;76.29
74613;BME280;63119;51.788;8.824;2023-06-22T04:28:29;100266.66;;;21.55;76.58
74613;BME280;63119;51.788;8.824;2023-06-22T04:30:54;100263.78;;;21.56;75.67
74613;BME280;63119;51.788;8.824;2023-06-22T04:33:27;100258.06;;;21.59;74.95
74613;BME280;63119;51.788;8.824;2023-06-22T04:35:54;100260.94;;;21.66;74.10
74613;BME280;63119;51.788;8.824;2023-06-22T04:38:19;100258.25;;;21.82;73.66
74613;BME280;63119;51.788;8.824;2023-06-22T04:40:46;100267.84;;;21.85;73.86
74613;BME280;63119;51.788;8.824;2023-06-22T04:43:11;100266.00;;;21.93;73.40
74613;BME280;63119;51.788;8.824;2023-06-22T04:45:37;100260.75;;;21.92;72.96
74613;BME280;63119;51.788;8.824;2023-06-22T04:48:04;100255.53;;;21.98;71.94
74613;BME280;63119;51.788;8.824;2023-06-22T04:50:29;100253.53;;;22.00;71.71
74613;BME280;63119;51.788;8.824;2023-06-22T04:52:54;100252.69;;;22.00;71.52
74613;BME280;63119;51.788;8.824;2023-06-22T04:55:20;100248.28;;;22.15;71.29
74613;BME280;63119;51.788;8.824;2023-06-22T04:57:45;100243.91;;;22.06;72.09
74613;BME280;63119;51.788;8.824;2023-06-22T05:00:15;100251.66;;;22.09;71.34
74613;BME280;63119;51.788;8.824;2023-06-22T05:02:42;100238.69;;;22.12;71.36
74613;BME280;63119;51.788;8.824;2023-06-22T05:05:08;100235.47;;;22.17;71.40
74613;BME280;63119;51.788;8.824;2023-06-22T05:07:42;100238.53;;;22.06;71.54
74613;BME280;63119;51.788;8.824;2023-06-22T05:10:11;100238.53;;;22.06;71.48
74613;BME280;63119;51.788;8.824;2023-06-22T05:12:37;100239.66;;;22.19;70.81
74613;BME280;63119;51.788;8.824;2023-06-22T05:15:03;100241.50;;;22.27;70.47
74613;BME280;63119;51.788;8.824;2023-06-22T05:17:28;100240.31;;;22.29;70.51
74613;BME280;63119;51.788;8.824;2023-06-22T05:19:53;100245.56;;;22.31;70.91
74613;BME280;63119;51.788;8.824;2023-06-22T05:22:20;100246.38;;;22.40;70.74
74613;BME280;63119;51.788;8.824;2023-06-22T05:24:45;100246.88;;;22.43;70.35
74613;BME280;63119;51.788;8.824;2023-06-22T05:27:11;100245.66;;;22.46;70.10
74613;BME280;63119;51.788;8.824;2023-06-22T05:29:36;100247.53;;;22.45;70.70
74613;BME280;63119;51.788;8.824;2023-06-22T05:32:02;100239.38;;;22.53;70.65
74613;BME280;63119;51.788;8.824;2023-06-22T05:34:28;100243.78;;;22.54;69.33
74613;BME280;63119;51.788;8.824;2023-06-22T05:36:53;100239.03;;;22.56;69.08
74613;BME280;63119;51.788;8.824;2023-06-22T05:39:18;100235.03;;;22.52;69.43
74613;BME280;63119;51.788;8.824;2023-06-22T05:41:45;100237.03;;;22.58;69.47
74613;BME280;63119;51.788;8.824;2023-06-22T05:44:10;100237.72;;;22.52;69.98
74613;BME280;63119;51.788;8.824;2023-06-22T05:46:36;100241.25;;;22.53;70.35
74613;BME280;63119;51.788;8.824;2023-06-22T05:49:01;100243.44;;;22.57;70.19
74613;BME280;63119;51.788;8.824;2023-06-22T05:51:27;100253.38;;;22.57;70.13
74613;BME280;63119;51.788;8.824;2023-06-22T05:53:52;100252.69;;;22.63;70.27
74613;BME280;63119;51.788;8.824;2023-06-22T05:56:17;100259.25;;;22.60;69.68
74613;BME280;63119;51.788;8.824;2023-06-22T05:58:42;100249.66;;;22.66;69.46
74613;BME280;63119;51.788;8.824;2023-06-22T06:01:08;100260.09;;;22.69;69.67
74613;BME280;63119;51.788;8.824;2023-06-22T06:03:33;100265.81;;;22.74;69.06
74613;BME280;63119;51.788;8.824;2023-06-22T06:05:58;100268.34;;;22.75;69.62
74613;BME280;63119;51.788;8.824;2023-06-22T06:08:23;100266.66;;;22.74;69.76
74613;BME280;63119;51.788;8.824;2023-06-22T06:10:49;100268.69;;;22.72;69.56
74613;BME280;63119;51.788;8.824;2023-06-22T06:13:14;100262.81;;;22.69;69.29
74613;BME280;63119;51.788;8.824;2023-06-22T06:15:39;100267.50;;;22.59;69.42
74613;BME280;63119;51.788;8.824;2023-06-22T06:18:05;100270.44;;;22.49;69.83
74613;BME280;63119;51.788;8.824;2023-06-22T06:20:31;100276.84;;;22.48;70.33
74613;BME280;63119;51.788;8.824;2023-06-22T06:22:57;100266.16;;;22.63;70.84
74613;BME280;63119;51.788;8.824;2023-06-22T06:25:22;100270.06;;;22.60;70.36
74613;BME280;63119;51.788;8.824;2023-06-22T06:27:50;100273.25;;;22.56;70.03
74613;BME280;63119;51.788;8.824;2023-06-22T06:30:17;100265.25;;;22.40;70.89
74613;BME280;63119;51.788;8.824;2023-06-22T06:32:43;100262.69;;;22.46;72.40
74613;BME280;63119;51.788;8.824;2023-06-22T06:35:11;100269.13;;;22.37;73.41
74613;BME280;63119;51.788;8.824;2023-06-22T06:37:37;100281.94;;;22.27;73.49
74613;BME280;63119;51.788;8.824;2023-06-22T06:40:04;100280.41;;;22.32;73.28
74613;BME280;63119;51.788;8.824;2023-06-22T06:42:35;100286.81;;;22.31;73.53
74613;BME280;63119;51.788;8.824;2023-06-22T06:45:02;100298.28;;;22.33;73.26
74613;BME280;63119;51.788;8.824;2023-06-22T06:47:28;100300.81;;;22.43;73.82
74613;BME280;63119;51.788;8.824;2023-06-22T06:49:53;100295.41;;;22.43;74.10
74613;BME280;63119;51.788;8.824;2023-06-22T06:52:18;100307.84;;;22.44;73.98
74613;BME280;63119;51.788;8.824;2023-06-22T06:54:45;100308.91;;;22.27;74.95
74613;BME280;63119;51.788;8.824;2023-06-22T06:57:10;100297.13;;;22.28;76.45
74613;BME280;63119;51.788;8.824;2023-06-22T06:59:35;100294.78;;;22.25;74.82
74613;BME280;63119;51.788;8.824;2023-06-22T07:02:01;100294.75;;;22.33;76.01
74613;BME280;63119;51.788;8.824;2023-06-22T07:04:26;100288.00;;;22.37;75.57
74613;BME280;63119;51.788;8.824;2023-06-22T07:06:52;100291.72;;;22.28;77.11
74613;BME280;63119;51.788;8.824;2023-06-22T07:09:17;100293.72;;;22.42;76.80
74613;BME280;63119;51.788;8.824;2023-06-22T07:11:43;100294.72;;;22.41;77.40
74613;BME280;63119;51.788;8.824;2023-06-22T07:14:09;100300.13;;;22.33;76.89
74613;BME280;63119;51.788;8.824;2023-06-22T07:16:34;100290.00;;;22.43;77.10
74613;BME280;63119;51.788;8.824;2023-06-22T07:18:59;100283.63;;;22.36;76.92
74613;BME280;63119;51.788;8.824;2023-06-22T07:21:25;100286.34;;;22.28;75.65
74613;BME280;63119;51.788;8.824;2023-06-22T07:23:50;100277.22;;;22.29;78.32
74613;BME280;63119;51.788;8.824;2023-06-22T07:26:15;100282.94;;;22.26;77.23
74613;BME280;63119;51.788;8.824;2023-06-22T07:28:41;100275.56;;;22.28;76.96
74613;BME280;63119;51.788;8.824;2023-06-22T07:31:07;100271.28;;;22.42;77.21
74613;BME280;63119;51.788;8.824;2023-06-22T07:33:32;100272.28;;;22.49;76.81
74613;BME280;63119;51.788;8.824;2023-06-22T07:35:57;100270.13;;;22.36;75.74
74613;BME280;63119;51.788;8.824;2023-06-22T07:38:23;100268.09;;;22.46;76.60
74613;BME280;63119;51.788;8.824;2023-06-22T07:40:48;100263.66;;;22.53;77.87
74613;BME280;63119;51.788;8.824;2023-06-22T07:43:14;100256.91;;;22.57;76.05
74613;BME280;63119;51.788;8.824;2023-06-22T07:45:39;100252.31;;;22.74;76.63
74613;BME280;63119;51.788;8.824;2023-06-22T07:48:06;100252.28;;;22.82;76.30
74613;BME280;63119;51.788;8.824;2023-06-22T07:50:31;100251.81;;;22.78;75.88
74613;BME280;63119;51.788;8.824;2023-06-22T07:52:56;100252.44;;;22.89;76.79
74613;BME280;63119;51.788;8.824;2023-06-22T07:55:22;100240.75;;;22.96;76.85
74613;BME280;63119;51.788;8.824;2023-06-22T07:57:49;100244.84;;;22.84;75.91
74613;BME280;63119;51.788;8.824;2023-06-22T08:00:17;100231.72;;;22.81;76.84
74613;BME280;63119;51.788;8.824;2023-06-22T08:02:44;100243.75;;;22.70;77.83
74613;BME280;63119;51.788;8.824;2023-06-22T08:05:10;100253.50;;;22.79;78.15
74613;BME280;63119;51.788;8.824;2023-06-22T08:07:36;100254.38;;;22.64;76.87
74613;BME280;63119;51.788;8.824;2023-06-22T08:10:03;100256.69;;;22.75;77.10
74613;BME280;63119;51.788;8.824;2023-06-22T08:12:28;100246.06;;;22.81;76.57
74613;BME280;63119;51.788;8.824;2023-06-22T08:14:54;100244.69;;;22.85;77.83
74613;BME280;63119;51.788;8.824;2023-06-22T08:17:19;100240.69;;;23.04;77.07
74613;BME280;63119;51.788;8.824;2023-06-22T08:19:44;100232.50;;;23.20;77.31
74613;BME280;63119;51.788;8.824;2023-06-22T08:22:09;100225.22;;;23.21;75.85
74613;BME280;63119;51.788;8.824;2023-06-22T08:24:35;100226.22;;;23.28;76.76
74613;BME280;63119;51.788;8.824;2023-06-22T08:27:00;100226.25;;;23.20;75.28
74613;BME280;63119;51.788;8.824;2023-06-22T08:29:25;100219.13;;;23.27;75.49
74613;BME280;63119;51.788;8.824;2023-06-22T08:31:50;100213.69;;;23.58;73.76
74613;BME280;63119;51.788;8.824;2023-06-22T08:34:16;100208.13;;;23.74;74.03
74613;BME280;63119;51.788;8.824;2023-06-22T08:36:43;100208.88;;;23.82;74.74
74613;BME280;63119;51.788;8.824;2023-06-22T08:39:08;100210.56;;;23.83;74.79
74613;BME280;63119;51.788;8.824;2023-06-22T08:41:33;100208.94;;;24.12;73.98
74613;BME280;63119;51.788;8.824;2023-06-22T08:43:59;100208.31;;;23.72;72.68
74613;BME280;63119;51.788;8.824;2023-06-22T08:46:24;100207.69;;;23.85;72.56
74613;BME280;63119;51.788;8.824;2023-06-22T08:48:55;100196.84;;;24.22;72.10
74613;BME280;63119;51.788;8.824;2023-06-22T08:51:20;100197.84;;;24.36;71.42
74613;BME280;63119;51.788;8.824;2023-06-22T08:53:45;100195.03;;;24.59;72.19
74613;BME280;63119;51.788;8.824;2023-06-22T08:56:11;100189.78;;;24.72;69.77
74613;BME280;63119;51.788;8.824;2023-06-22T08:58:36;100187.34;;;25.13;69.94
74613;BME280;63119;51.788;8.824;2023-06-22T09:01:01;100192.91;;;25.68;69.43
74613;BME280;63119;51.788;8.824;2023-06-22T09:03:27;100190.09;;;26.11;67.55
74613;BME280;63119;51.788;8.824;2023-06-22T09:05:52;100187.75;;;26.42;67.36
74613;BME280;63119;51.788;8.824;2023-06-22T09:08:17;100176.41;;;26.73;63.23
74613;BME280;63119;51.788;8.824;2023-06-22T09:10:43;100176.31;;;27.00;63.10
74613;BME280;63119;51.788;8.824;2023-06-22T09:13:08;100172.19;;;27.11;62.53
74613;BME280;63119;51.788;8.824;2023-06-22T09:15:33;100167.84;;;26.69;59.09
74613;BME280;63119;51.788;8.824;2023-06-22T09:17:59;100175.72;;;27.11;58.76
74613;BME280;63119;51.788;8.824;2023-06-22T09:20:24;100175.81;;;26.77;58.49
74613;BME280;63119;51.788;8.824;2023-06-22T09:22:50;100180.91;;;26.46;58.37
74613;BME280;63119;51.788;8.824;2023-06-22T09:25:15;100180.31;;;26.57;58.05
74613;BME280;63119;51.788;8.824;2023-06-22T09:27:40;100175.22;;;26.82;57.65
74613;BME280;63119;51.788;8.824;2023-06-22T09:30:06;100175.28;;;26.47;58.64
74613;BME280;63119;51.788;8.824;2023-06-22T09:32:32;100175.13;;;26.62;59.32
74613;BME280;63119;51.788;8.824;2023-06-22T09:34:57;100168.16;;;26.94;59.25
74613;BME280;63119;51.788;8.824;2023-06-22T09:37:22;100163.63;;;27.14;57.28
74613;BME280;63119;51.788;8.824;2023-06-22T09:39:47;100158.00;;;27.42;57.27
74613;BME280;63119;51.788;8.824;2023-06-22T09:42:13;100150.47;;;27.70;56.96
74613;BME280;63119;51.788;8.824;2023-06-22T09:44:38;100133.34;;;27.43;55.75
74613;BME280;63119;51.788;8.824;2023-06-22T09:47:04;100122.66;;;27.29;55.32
74613;BME280;63119;51.788;8.824;2023-06-22T09:49:29;100119.28;;;27.07;54.40
74613;BME280;63119;51.788;8.824;2023-06-22T09:51:55;100117.00;;;27.04;55.92
74613;BME280;63119;51.788;8.824;2023-06-22T09:54:20;100114.72;;;27.40;55.26
74613;BME280;63119;51.788;8.824;2023-06-22T09:56:45;100113.44;;;27.76;55.54
74613;BME280;63119;51.788;8.824;2023-06-22T09:59:10;100120.06;;;28.12;54.57
74613;BME280;63119;51.788;8.824;2023-06-22T10:01:36;100126.78;;;28.03;53.63
74613;BME280;63119;51.788;8.824;2023-06-22T10:04:02;100119.09;;;27.74;52.55
74613;BME280;63119;51.788;8.824;2023-06-22T10:06:27;100125.00;;;27.45;54.32
74613;BME280;63119;51.788;8.824;2023-06-22T10:08:52;100119.53;;;27.78;54.80
74613;BME280;63119;51.788;8.824;2023-06-22T10:11:18;100113.44;;;27.82;54.51
74613;BME280;63119;51.788;8.824;2023-06-22T10:13:43;100112.22;;;27.65;54.50
74613;BME280;63119;51.788;8.824;2023-06-22T10:16:08;100121.00;;;27.67;55.04
74613;BME280;63119;51.788;8.824;2023-06-22T10:18:34;100117.22;;;27.42;55.36
74613;BME280;63119;51.788;8.824;2023-06-22T10:20:59;100119.13;;;27.54;54.89
74613;BME280;63119;51.788;8.824;2023-06-22T10:23:24;100116.72;;;28.24;53.83
74613;BME280;63119;51.788;8.824;2023-06-22T10:25:50;100113.44;;;28.53;52.93
74613;BME280;63119;51.788;8.824;2023-06-22T10:28:15;100112.69;;;28.77;51.49
74613;BME280;63119;51.788;8.824;2023-06-22T10:30:41;100111.94;;;28.63;51.43
74613;BME280;63119;51.788;8.824;2023-06-22T10:33:10;100113.75;;;28.32;51.53
74613;BME280;63119;51.788;8.824;2023-06-22T10:35:36;100111.69;;;28.20;52.52
74613;BME280;63119;51.788;8.824;2023-06-22T10:38:05;100116.72;;;28.04;50.42
74613;BME280;63119;51.788;8.824;2023-06-22T10:40:30;100097.69;;;28.04;51.35
74613;BME280;63119;51.788;8.824;2023-06-22T10:42:56;100088.94;;;27.95;51.21
74613;BME280;63119;51.788;8.824;2023-06-22T10:45:21;100087.44;;;28.06;50.94
74613;BME280;63119;51.788;8.824;2023-06-22T10:47:47;100067.22;;;28.40;52.36
74613;BME280;63119;51.788;8.824;2023-06-22T10:50:12;100068.28;;;28.39;51.45
74613;BME280;63119;51.788;8.824;2023-06-22T10:52:37;100060.72;;;28.41;52.55
74613;BME280;63119;51.788;8.824;2023-06-22T10:55:03;100054.00;;;27.92;53.40
74613;BME280;63119;51.788;8.824;2023-06-22T10:57:28;100056.47;;;28.13;52.97
74613;BME280;63119;51.788;8.824;2023-06-22T10:59:54;100055.81;;;28.56;53.39
74613;BME280;63119;51.788;8.824;2023-06-22T11:02:19;100048.25;;;28.27;53.24
74613;BME280;63119;51.788;8.824;2023-06-22T11:04:44;100051.19;;;28.18;53.69
74613;BME280;63119;51.788;8.824;2023-06-22T11:07:11;100047.50;;;28.44;52.87
74613;BME280;63119;51.788;8.824;2023-06-22T11:09:36;100053.56;;;27.95;53.22
74613;BME280;63119;51.788;8.824;2023-06-22T11:12:03;100046.28;;;27.83;55.24
74613;BME280;63119;51.788;8.824;2023-06-22T11:14:29;100038.16;;;27.69;56.07
74613;BME280;63119;51.788;8.824;2023-06-22T11:16:54;100038.53;;;27.86;55.30
74613;BME280;63119;51.788;8.824;2023-06-22T11:19:19;100027.78;;;28.11;54.58
74613;BME280;63119;51.788;8.824;2023-06-22T11:21:45;100020.66;;;28.16;55.32
74613;BME280;63119;51.788;8.824;2023-06-22T11:24:10;100016.69;;;28.12;55.01
74613;BME280;63119;51.788;8.824;2023-06-22T11:26:35;100016.16;;;28.35;53.94
74613;BME280;63119;51.788;8.824;2023-06-22T11:29:01;100005.75;;;28.57;53.19
74613;BME280;63119;51.788;8.824;2023-06-22T11:31:30;99999.03;;;28.59;52.84
74613;BME280;63119;51.788;8.824;2023-06-22T11:33:55;100001.94;;;28.64;52.90
74613;BME280;63119;51.788;8.824;2023-06-22T11:36:21;99989.88;;;28.54;51.61
74613;BME280;63119;51.788;8.824;2023-06-22T11:38:46;99985.88;;;28.88;51.86
74613;BME280;63119;51.788;8.824;2023-06-22T11:41:11;99988.69;;;28.99;50.49
74613;BME280;63119;51.788;8.824;2023-06-22T11:43:36;99992.56;;;28.85;50.72
74613;BME280;63119;51.788;8.824;2023-06-22T11:46:05;99982.03;;;28.64;50.08
74613;BME280;63119;51.788;8.824;2023-06-22T11:48:30;99966.13;;;28.61;50.65
74613;BME280;63119;51.788;8.824;2023-06-22T11:50:56;99974.38;;;28.79;50.68
74613;BME280;63119;51.788;8.824;2023-06-22T11:53:23;99962.59;;;29.10;50.50
74613;BME280;63119;51.788;8.824;2023-06-22T11:55:49;99960.69;;;29.10;49.44
74613;BME280;63119;51.788;8.824;2023-06-22T11:58:14;99963.34;;;29.23;49.35
74613;BME280;63119;51.788;8.824;2023-06-22T12:00:39;99961.53;;;29.11;48.09
74613;BME280;63119;51.788;8.824;2023-06-22T12:03:05;99961.44;;;29.24;46.54
74613;BME280;63119;51.788;8.824;2023-06-22T12:05:30;99952.72;;;29.34;47.54
74613;BME280;63119;51.788;8.824;2023-06-22T12:07:55;99953.06;;;29.19;48.08
74613;BME280;63119;51.788;8.824;2023-06-22T12:10:22;99945.38;;;28.91;48.21
74613;BME280;63119;51.788;8.824;2023-06-22T12:12:47;99954.91;;;29.00;51.08
74613;BME280;63119;51.788;8.824;2023-06-22T12:15:13;99957.28;;;28.72;50.59
74613;BME280;63119;51.788;8.824;2023-06-22T12:17:38;99955.50;;;28.84;50.03
74613;BME280;63119;51.788;8.824;2023-06-22T12:20:04;99961.25;;;28.45;49.88
74613;BME280;63119;51.788;8.824;2023-06-22T12:22:32;99956.78;;;28.50;50.38
74613;BME280;63119;51.788;8.824;2023-06-22T12:24:57;99957.41;;;28.52;51.46
74613;BME280;63119;51.788;8.824;2023-06-22T12:27:22;99971.09;;;28.39;52.53
74613;BME280;63119;51.788;8.824;2023-06-22T12:29:48;99989.75;;;27.91;55.63
74613;BME280;63119;51.788;8.824;2023-06-22T12:32:13;99984.56;;;27.83;55.84
74613;BME280;63119;51.788;8.824;2023-06-22T12:34:39;99994.13;;;27.99;55.62
74613;BME280;63119;51.788;8.824;2023-06-22T12:37:05;100006.34;;;27.77;55.76
74613;BME280;63119;51.788;8.824;2023-06-22T12:39:31;100001.75;;;27.77;55.03
74613;BME280;63119;51.788;8.824;2023-06-22T12:41:56;100008.06;;;27.64;56.24
74613;BME280;63119;51.788;8.824;2023-06-22T12:44:22;100015.00;;;27.28;57.87
74613;BME280;63119;51.788;8.824;2023-06-22T12:46:47;100023.38;;;27.20;58.45